This is the latest recevied weather packets stored in our database for station/object W8LMG. If no packets are shown the sender has not sent any weather packets the latest 1 day(s).
| Time | Temp. | Humidity | Pressure | Rain* | Wind** | Luminosity | Snow |
|---|---|---|---|---|---|---|---|
| 1778036195 | 15° C | 68% | 1012.8 hPa | 0 mm | - | 0 W/m² | - |
| 1778035589 | 16.11° C | 58% | 1012.7 hPa | 0 mm | - | 0 W/m² | - |
| 1778035284 | 16.67° C | 58% | 1012.7 hPa | 0 mm | - | 0 W/m² | - |
| 1778034981 | 17.22° C | 54% | 1012.7 hPa | 0 mm | - | 0 W/m² | - |
| 1778034678 | 17.22° C | 55% | 1012.6 hPa | 0 mm | - | 0 W/m² | - |
| 1778034376 | 16.67° C | 56% | 1012.5 hPa | 0 mm | - | 0 W/m² | - |
| 1778034073 | 17.22° C | 56% | 1012.7 hPa | 0 mm | - | 0 W/m² | - |
| 1778033770 | 17.78° C | 54% | 1012.6 hPa | 0 mm | - | 0 W/m² | - |
| 1778033468 | 17.78° C | 51% | 1012.5 hPa | 0 mm | - | 0 W/m² | - |
| 1778032559 | 17.78° C | 52% | 1012.6 hPa | 0 mm | - | 0 W/m² | - |
| 1778032256 | 17.78° C | 54% | 1012.6 hPa | 0 mm | - | 0 W/m² | - |
| 1778031954 | 17.78° C | 51% | 1012.6 hPa | 0 mm | - | 0 W/m² | - |
| 1778031649 | 17.78° C | 53% | 1012.5 hPa | 0 mm | - | 0 W/m² | - |
| 1778031348 | 18.33° C | 51% | 1012.6 hPa | 0 mm | - | 0 W/m² | - |
| 1778031044 | 18.33° C | 50% | 1012.5 hPa | 0 mm | - | 0 W/m² | - |
| 1778030740 | 18.33° C | 48% | 1012.5 hPa | 0 mm | - | 0 W/m² | - |
| 1778030135 | 18.33° C | 51% | 1012.4 hPa | 0 mm | - | 0 W/m² | - |
| 1778029831 | 18.89° C | 48% | 1012.4 hPa | 0 mm | - | 0 W/m² | - |
| 1778029531 | 18.89° C | 47% | 1012.6 hPa | 0 mm | - | 0 W/m² | - |
| 1778029227 | 19.44° C | 43% | 1012.3 hPa | 0 mm | - | 0 W/m² | - |
| 1778028924 | 20° C | 42% | 1012.3 hPa | 0 mm | - | 0 W/m² | - |
| 1778028014 | 18.33° C | 46% | 1012.1 hPa | 0 mm | - | 0 W/m² | - |
| 1778027710 | 18.89° C | 52% | 1012.1 hPa | 0 mm | - | 0 W/m² | - |
| 1778026798 | 20° C | 44% | 1012 hPa | 0 mm | - | 1 W/m² | - |
| 1778025285 | 20° C | 45% | 1011.8 hPa | 0 mm | - | 11 W/m² | - |
* Rain latest hour (hover to see other rain measurements)
** Current wind speed in m/s (hover to see current wind gust speed)